createdAt,value
2022-08-17T00:00:43.078Z,78.50
2022-08-17T00:03:17.285Z,78.80
2022-08-17T00:06:01.164Z,79.00
2022-08-17T00:08:47.342Z,78.90
2022-08-17T00:11:23.009Z,78.90
2022-08-17T00:13:57.231Z,79.30
2022-08-17T00:16:51.025Z,79.30
2022-08-17T00:19:23.910Z,79.20
2022-08-17T00:22:32.214Z,79.30
2022-08-17T00:24:43.863Z,79.60
2022-08-17T00:27:11.521Z,79.50
2022-08-17T00:29:39.141Z,79.50
2022-08-17T00:33:10.814Z,79.70
2022-08-17T00:34:54.708Z,79.60
2022-08-17T00:37:22.259Z,80.10
2022-08-17T00:39:49.870Z,79.80
2022-08-17T00:42:19.042Z,79.90
2022-08-17T00:44:47.420Z,79.90
2022-08-17T00:47:15.020Z,80.20
2022-08-17T00:49:42.750Z,80.20
2022-08-17T00:52:16.938Z,80.30
2022-08-17T00:54:47.429Z,80.50
2022-08-17T00:57:29.317Z,80.40
2022-08-17T01:00:03.537Z,80.30
2022-08-17T01:02:41.986Z,80.20
2022-08-17T01:05:25.324Z,80.30
2022-08-17T01:07:54.205Z,80.30
2022-08-17T01:10:59.690Z,80.50
2022-08-17T01:13:16.453Z,80.50
2022-08-17T01:15:50.897Z,80.30
2022-08-17T01:18:18.605Z,80.30
2022-08-17T01:20:51.724Z,80.50
2022-08-17T01:23:21.581Z,80.60
2022-08-17T01:25:56.307Z,80.50
2022-08-17T01:28:53.095Z,80.50
2022-08-17T01:31:13.920Z,80.80
2022-08-17T01:33:41.621Z,80.50
2022-08-17T01:36:10.487Z,80.60
2022-08-17T01:38:38.916Z,80.30
2022-08-17T01:41:14.148Z,80.20
2022-08-17T01:44:00.933Z,80.10
2022-08-17T01:46:32.643Z,80.20
2022-08-17T01:49:01.542Z,80.20
2022-08-17T01:51:33.161Z,80.30
2022-08-17T01:54:08.933Z,79.90
2022-08-17T01:56:40.340Z,80.10
2022-08-17T01:59:07.738Z,79.90
2022-08-17T02:01:37.330Z,80.00
2022-08-17T02:04:07.232Z,80.10
2022-08-17T02:06:52.410Z,80.10
2022-08-17T02:09:23.443Z,80.00
2022-08-17T02:11:54.666Z,80.10
2022-08-17T02:14:23.723Z,80.30
2022-08-17T02:16:51.276Z,80.10
2022-08-17T02:19:18.935Z,80.30
2022-08-17T02:21:48.470Z,80.20
2022-08-17T02:25:00.689Z,80.40
2022-08-17T02:27:13.775Z,80.20
2022-08-17T02:29:41.381Z,80.20
2022-08-17T02:32:28.372Z,80.20
2022-08-17T02:34:57.822Z,80.10
2022-08-17T02:37:27.105Z,79.80
2022-08-17T02:39:57.400Z,79.90
2022-08-17T02:42:29.802Z,79.80
2022-08-17T02:44:57.589Z,79.90
2022-08-17T02:47:25.392Z,79.60
2022-08-17T02:49:55.357Z,79.70
2022-08-17T02:52:42.927Z,79.60
2022-08-17T02:55:22.746Z,79.80
2022-08-17T02:57:51.220Z,79.70
2022-08-17T03:00:24.887Z,79.70
2022-08-17T03:02:53.074Z,79.70
2022-08-17T03:05:24.087Z,79.70
2022-08-17T03:07:52.178Z,79.70
2022-08-17T03:10:20.882Z,79.60
2022-08-17T03:12:49.080Z,79.50
2022-08-17T03:15:26.528Z,79.60
2022-08-17T03:17:55.896Z,79.60
2022-08-17T03:20:25.124Z,79.50
2022-08-17T03:22:55.841Z,79.40
2022-08-17T03:25:36.307Z,79.20
2022-08-17T03:28:05.579Z,79.20
2022-08-17T03:30:34.108Z,79.40
2022-08-17T03:33:04.296Z,79.50
2022-08-17T03:35:35.218Z,79.40
2022-08-17T03:38:03.453Z,79.50
2022-08-17T03:40:39.912Z,79.50
2022-08-17T03:43:21.669Z,79.30
2022-08-17T03:46:10.833Z,79.30
2022-08-17T03:49:14.704Z,78.90
2022-08-17T03:52:00.585Z,79.20
2022-08-17T03:54:46.425Z,79.10
2022-08-17T03:57:14.172Z,79.30
2022-08-17T03:59:41.835Z,79.30
2022-08-17T04:02:15.985Z,79.00
2022-08-17T04:04:43.301Z,78.70
2022-08-17T04:07:10.816Z,78.90
2022-08-17T04:09:38.366Z,78.60
2022-08-17T04:12:06.096Z,78.70
2022-08-17T04:14:51.890Z,78.60
2022-08-17T04:17:31.295Z,78.70
2022-08-17T04:19:58.690Z,78.10
2022-08-17T04:22:31.318Z,78.10
2022-08-17T04:25:14.407Z,78.20
2022-08-17T04:27:41.742Z,77.90
2022-08-17T04:30:10.262Z,77.90
2022-08-17T04:33:10.569Z,78.10
2022-08-17T04:35:41.447Z,78.10
2022-08-17T04:38:10.672Z,77.90
2022-08-17T04:40:57.021Z,78.00
2022-08-17T04:43:26.143Z,78.30
2022-08-17T04:46:02.141Z,78.40
2022-08-17T04:48:37.717Z,77.80
2022-08-17T04:51:17.194Z,77.60
2022-08-17T04:53:53.909Z,77.50
2022-08-17T04:56:23.152Z,77.20
2022-08-17T04:58:52.551Z,77.40
2022-08-17T05:01:25.201Z,77.60
2022-08-17T05:03:54.470Z,77.40
2022-08-17T05:06:22.341Z,77.30
2022-08-17T05:08:49.997Z,78.30
2022-08-17T05:11:17.481Z,78.80
2022-08-17T05:13:44.959Z,79.10
2022-08-17T05:16:12.656Z,79.50
2022-08-17T05:18:40.390Z,79.30
2022-08-17T05:21:08.269Z,79.90
2022-08-17T05:23:42.025Z,80.00
2022-08-17T05:26:22.003Z,80.20
2022-08-17T05:28:59.796Z,80.50
2022-08-17T05:31:31.381Z,80.10
2022-08-17T05:33:59.841Z,79.70
2022-08-17T05:36:42.633Z,79.80
2022-08-17T05:39:15.817Z,79.60
2022-08-17T05:41:44.881Z,79.10
2022-08-17T05:44:12.381Z,78.80
2022-08-17T05:46:44.101Z,79.10
2022-08-17T05:49:14.341Z,79.00
2022-08-17T05:52:14.101Z,79.10
2022-08-17T05:55:28.962Z,79.00
2022-08-17T05:58:19.372Z,78.60
2022-08-17T06:00:56.297Z,78.30
2022-08-17T06:04:08.712Z,77.90
2022-08-17T06:07:00.541Z,78.30
2022-08-17T06:09:38.866Z,78.10
2022-08-17T06:12:37.423Z,78.00
2022-08-17T06:15:24.983Z,78.30
2022-08-17T06:17:59.471Z,78.00
2022-08-17T06:20:36.622Z,78.30
2022-08-17T06:23:10.835Z,78.20
2022-08-17T06:25:47.146Z,78.50
2022-08-17T06:28:26.512Z,77.70
2022-08-17T06:31:01.477Z,77.60
2022-08-17T06:33:38.545Z,77.20
2022-08-17T06:36:42.804Z,77.30
2022-08-17T06:39:18.703Z,76.60
2022-08-17T06:42:05.973Z,76.60
2022-08-17T06:44:50.595Z,75.50
2022-08-17T06:47:33.502Z,76.00
2022-08-17T06:50:27.912Z,75.30
2022-08-17T06:53:14.382Z,74.40
2022-08-17T06:56:03.263Z,74.20
2022-08-17T06:58:32.405Z,73.80
2022-08-17T07:01:10.148Z,73.70
2022-08-17T07:03:54.981Z,73.30
2022-08-17T07:06:27.030Z,73.00
2022-08-17T07:09:14.590Z,70.90
2022-08-17T07:11:53.262Z,69.90
2022-08-17T07:14:43.942Z,69.60
2022-08-17T07:17:17.583Z,68.10
2022-08-17T07:19:47.941Z,66.40
2022-08-17T07:22:54.785Z,67.00
2022-08-17T07:25:21.783Z,66.80
2022-08-17T07:27:52.994Z,67.50
2022-08-17T07:30:37.264Z,68.30
2022-08-17T07:33:22.964Z,68.30
2022-08-17T07:35:50.314Z,68.00
2022-08-17T07:38:32.147Z,69.10
2022-08-17T07:41:02.931Z,68.40
2022-08-17T07:43:42.434Z,68.80
2022-08-17T07:46:42.443Z,69.60
2022-08-17T07:49:09.795Z,69.40
2022-08-17T07:51:46.087Z,69.50
2022-08-17T07:54:16.197Z,69.30
2022-08-17T07:57:29.496Z,69.30
2022-08-17T08:00:01.513Z,68.80
2022-08-17T08:02:33.831Z,68.20
2022-08-17T08:05:48.746Z,68.30
2022-08-17T08:08:28.345Z,67.20
2022-08-17T08:11:07.409Z,67.10
2022-08-17T08:13:40.629Z,66.70
2022-08-17T08:16:31.760Z,64.70
2022-08-17T08:19:01.620Z,64.60
2022-08-17T08:21:51.238Z,63.30
2022-08-17T08:24:36.896Z,63.70
2022-08-17T08:27:35.050Z,63.70
2022-08-17T08:30:18.716Z,64.00
2022-08-17T08:33:17.596Z,63.60
2022-08-17T08:35:59.238Z,64.20
2022-08-17T08:38:43.258Z,63.20
2022-08-17T08:41:22.517Z,64.70
2022-08-17T08:44:01.550Z,62.70
2022-08-17T08:46:53.716Z,61.50
2022-08-17T08:50:01.390Z,59.60
2022-08-17T08:52:51.929Z,59.40
2022-08-17T08:55:38.927Z,60.10
2022-08-17T08:58:31.592Z,59.70
2022-08-17T09:01:17.683Z,59.20
2022-08-17T09:04:24.135Z,58.50
2022-08-17T09:07:23.240Z,60.40
2022-08-17T09:09:59.916Z,57.50
2022-08-17T09:12:56.596Z,56.70
2022-08-17T09:15:33.767Z,55.40
2022-08-17T09:19:00.987Z,56.40
2022-08-17T09:21:19.089Z,56.40
2022-08-17T09:24:13.048Z,57.60
2022-08-17T09:27:08.597Z,55.90
2022-08-17T09:29:41.636Z,55.30
2022-08-17T09:32:55.598Z,53.80
2022-08-17T09:35:36.524Z,53.20
2022-08-17T09:38:54.538Z,54.20
2022-08-17T09:41:49.244Z,53.30
2022-08-17T09:44:38.197Z,53.50
2022-08-17T09:47:30.815Z,53.50
2022-08-17T09:50:08.478Z,53.60
2022-08-17T09:52:36.357Z,51.80
2022-08-17T09:55:06.247Z,51.50
2022-08-17T09:57:58.008Z,50.20
2022-08-17T10:00:30.878Z,50.70
2022-08-17T10:03:22.677Z,49.80
2022-08-17T10:05:59.717Z,48.30
2022-08-17T10:08:44.615Z,47.90
2022-08-17T10:11:16.798Z,46.70
2022-08-17T10:14:03.037Z,47.50
2022-08-17T10:17:11.557Z,47.90
2022-08-17T10:19:47.157Z,46.40
2022-08-17T10:22:40.197Z,46.80
2022-08-17T10:25:48.556Z,47.50
2022-08-17T10:28:25.835Z,47.40
2022-08-17T10:34:09.636Z,47.80
2022-08-17T10:36:52.885Z,48.20
2022-08-17T10:39:30.890Z,48.00
2022-08-17T10:42:05.455Z,47.30
2022-08-17T10:44:45.636Z,47.00
2022-08-17T10:47:16.276Z,44.70
2022-08-17T10:49:49.835Z,46.00
2022-08-17T10:52:19.927Z,45.10
2022-08-17T10:54:48.637Z,43.00
2022-08-17T10:57:34.089Z,44.20
2022-08-17T11:00:27.026Z,43.60
2022-08-17T11:02:57.718Z,42.70
2022-08-17T11:05:43.727Z,43.70
2022-08-17T11:08:33.035Z,42.90
2022-08-17T11:11:20.196Z,43.30
2022-08-17T11:14:11.405Z,41.20
2022-08-17T11:16:57.838Z,40.90
2022-08-17T11:19:43.845Z,41.80
2022-08-17T11:22:16.925Z,41.80
2022-08-17T11:24:48.397Z,40.70
2022-08-17T11:27:24.317Z,41.20
2022-08-17T11:30:01.260Z,42.30
2022-08-17T11:32:47.707Z,42.50
2022-08-17T11:35:21.961Z,42.80
2022-08-17T11:38:15.885Z,42.50
2022-08-17T11:40:46.836Z,43.00
2022-08-17T11:43:45.957Z,42.20
2022-08-17T11:46:51.796Z,43.00
2022-08-17T11:50:00.523Z,44.20
2022-08-17T11:52:47.323Z,42.60
2022-08-17T11:55:39.629Z,43.10
2022-08-17T11:58:31.035Z,43.40
2022-08-17T12:01:02.974Z,42.40
2022-08-17T12:03:37.158Z,43.60
2022-08-17T12:06:31.094Z,44.00
2022-08-17T12:09:22.247Z,42.40
2022-08-17T12:12:12.681Z,43.30
2022-08-17T12:17:40.532Z,44.00
2022-08-17T12:20:35.445Z,43.40
2022-08-17T12:23:33.916Z,44.30
2022-08-17T12:26:23.467Z,44.30
2022-08-17T12:29:18.469Z,43.20
2022-08-17T12:32:04.156Z,43.00
2022-08-17T12:34:41.008Z,42.70
2022-08-17T12:37:16.794Z,43.60
2022-08-17T12:39:52.786Z,43.00
2022-08-17T12:42:26.809Z,43.00
2022-08-17T12:44:54.365Z,43.40
2022-08-17T12:47:23.174Z,42.20
2022-08-17T12:50:03.965Z,43.00
2022-08-17T12:52:33.156Z,42.00
2022-08-17T12:55:07.241Z,42.40
2022-08-17T12:57:43.528Z,43.10
2022-08-17T13:00:21.369Z,42.50
2022-08-17T13:02:54.446Z,42.70
2022-08-17T13:05:36.755Z,42.90
2022-08-17T13:08:36.370Z,43.00
2022-08-17T13:11:29.208Z,43.30
2022-08-17T13:14:08.840Z,43.00
2022-08-17T13:16:36.715Z,43.50
2022-08-17T13:19:20.477Z,43.30
2022-08-17T13:22:12.696Z,42.70
2022-08-17T13:24:53.358Z,42.30
2022-08-17T13:27:22.675Z,41.90
2022-08-17T13:29:57.635Z,42.10
2022-08-17T13:32:39.922Z,42.90
2022-08-17T13:35:36.470Z,42.00
2022-08-17T13:38:38.635Z,41.20
2022-08-17T13:41:07.361Z,41.60
2022-08-17T13:43:46.676Z,41.80
2022-08-17T13:46:21.246Z,41.60
2022-08-17T13:48:59.437Z,42.00
2022-08-17T13:51:30.965Z,41.70
2022-08-17T13:54:01.885Z,42.10
2022-08-17T13:56:47.275Z,41.80
2022-08-17T13:59:53.727Z,42.30
2022-08-17T14:02:20.236Z,42.30
2022-08-17T14:04:48.365Z,41.40
2022-08-17T14:07:16.405Z,41.70
2022-08-17T14:09:55.762Z,42.60
2022-08-17T14:12:28.955Z,40.40
2022-08-17T14:14:56.918Z,40.10
2022-08-17T14:17:25.835Z,41.90
2022-08-17T14:19:54.061Z,40.90
2022-08-17T14:22:32.556Z,40.80
2022-08-17T14:25:04.595Z,42.00
2022-08-17T14:27:41.880Z,40.10
2022-08-17T14:30:21.878Z,40.70
2022-08-17T14:32:49.836Z,41.00
2022-08-17T14:35:17.446Z,40.50
2022-08-17T14:37:45.962Z,41.00
2022-08-17T14:40:15.883Z,41.40
2022-08-17T14:42:45.910Z,40.50
2022-08-17T14:45:29.554Z,39.50
2022-08-17T14:48:00.366Z,40.30
2022-08-17T14:50:27.877Z,40.80
2022-08-17T14:52:58.012Z,39.90
2022-08-17T14:55:25.586Z,39.00
2022-08-17T14:57:53.406Z,38.50
2022-08-17T15:00:20.916Z,39.60
2022-08-17T15:02:54.886Z,38.80
2022-08-17T15:05:24.868Z,38.90
2022-08-17T15:07:53.648Z,39.40
2022-08-17T15:10:21.158Z,40.10
2022-08-17T15:12:48.616Z,38.90
2022-08-17T15:15:17.753Z,38.70
2022-08-17T15:17:54.625Z,39.50
2022-08-17T15:20:26.716Z,39.00
2022-08-17T15:22:57.682Z,38.50
2022-08-17T15:25:32.128Z,39.30
2022-08-17T15:28:00.968Z,39.30
2022-08-17T15:30:29.066Z,38.80
2022-08-17T15:32:58.819Z,37.60
2022-08-17T15:35:31.209Z,37.70
2022-08-17T15:38:10.727Z,38.50
2022-08-17T15:40:42.971Z,38.80
2022-08-17T15:43:15.398Z,39.10
2022-08-17T15:45:43.238Z,38.40
2022-08-17T15:48:10.716Z,38.70
2022-08-17T15:50:38.247Z,39.30
2022-08-17T15:53:05.838Z,39.40
2022-08-17T15:55:34.157Z,39.40
2022-08-17T15:58:01.727Z,39.70
2022-08-17T16:00:29.718Z,40.20
2022-08-17T16:03:47.066Z,40.60
2022-08-17T16:05:48.277Z,40.40
2022-08-17T16:08:20.620Z,40.40
2022-08-17T16:10:50.010Z,40.30
2022-08-17T16:13:19.597Z,41.10
2022-08-17T16:15:57.068Z,40.90
2022-08-17T16:18:31.598Z,41.20
2022-08-17T16:21:20.968Z,41.60
2022-08-17T16:23:51.678Z,41.40
2022-08-17T16:26:19.557Z,41.80
2022-08-17T16:28:47.327Z,41.60
2022-08-17T16:31:14.876Z,41.70
2022-08-17T16:33:43.079Z,42.40
2022-08-17T16:36:31.327Z,42.40
2022-08-17T16:38:58.935Z,42.50
2022-08-17T16:41:45.312Z,42.50
2022-08-17T16:44:15.602Z,43.00
2022-08-17T16:46:45.998Z,42.70
2022-08-17T16:49:36.293Z,43.40
2022-08-17T16:52:03.613Z,43.20
2022-08-17T16:54:30.978Z,43.50
2022-08-17T16:56:58.464Z,43.60
2022-08-17T16:59:30.874Z,43.70
2022-08-17T17:02:11.332Z,44.30
2022-08-17T17:04:46.853Z,45.70
2022-08-17T17:07:44.958Z,45.80
2022-08-17T17:10:16.365Z,45.80
2022-08-17T17:13:03.059Z,46.40
2022-08-17T17:15:55.329Z,46.50
2022-08-17T17:18:32.122Z,48.00
2022-08-17T17:21:00.450Z,49.60
2022-08-17T17:23:41.432Z,50.70
2022-08-17T17:26:27.693Z,51.00
2022-08-17T17:29:18.573Z,53.40
2022-08-17T17:31:58.294Z,55.00
2022-08-17T17:34:30.287Z,56.60
2022-08-17T17:37:04.477Z,56.60
2022-08-17T17:39:43.757Z,57.00
2022-08-17T17:42:23.044Z,57.00
2022-08-17T17:45:17.525Z,57.60
2022-08-17T17:47:46.090Z,58.40
2022-08-17T17:50:16.343Z,59.50
2022-08-17T17:52:48.844Z,60.20
2022-08-17T17:55:30.264Z,60.60
2022-08-17T17:58:21.864Z,61.20
2022-08-17T18:01:09.384Z,61.50
2022-08-17T18:03:42.853Z,63.30
2022-08-17T18:06:16.563Z,64.20
2022-08-17T18:08:49.373Z,65.10
2022-08-17T18:11:34.843Z,65.80
2022-08-17T18:14:14.846Z,65.80
2022-08-17T18:16:44.113Z,66.80
2022-08-17T18:19:20.214Z,67.40
2022-08-17T18:21:56.294Z,68.00
2022-08-17T18:24:36.573Z,68.60
2022-08-17T18:27:24.418Z,68.90
2022-08-17T18:29:59.453Z,69.20
2022-08-17T18:32:34.984Z,69.40
2022-08-17T18:35:28.163Z,69.70
2022-08-17T18:38:10.025Z,69.80
2022-08-17T18:40:38.400Z,70.00
2022-08-17T18:43:13.116Z,70.30
2022-08-17T18:45:43.577Z,70.90
2022-08-17T18:48:34.193Z,71.10
2022-08-17T18:51:40.372Z,71.40
2022-08-17T18:54:24.537Z,71.60
2022-08-17T18:57:03.094Z,71.80
2022-08-17T18:59:48.096Z,72.00
2022-08-17T19:02:34.603Z,72.50
2022-08-17T19:05:09.503Z,72.60
2022-08-17T19:07:44.047Z,72.60
2022-08-17T19:10:32.146Z,72.50
2022-08-17T19:13:24.075Z,72.90
2022-08-17T19:16:30.969Z,73.50
2022-08-17T19:19:07.547Z,73.90
2022-08-17T19:21:40.741Z,75.70
2022-08-17T19:24:11.978Z,76.10
2022-08-17T19:26:54.308Z,76.20
2022-08-17T19:30:08.563Z,76.60
2022-08-17T19:32:36.897Z,77.20
2022-08-17T19:35:07.899Z,77.20
2022-08-17T19:37:59.107Z,77.20
2022-08-17T19:40:54.249Z,77.10
2022-08-17T19:43:44.060Z,77.40
2022-08-17T19:46:35.853Z,78.00
2022-08-17T19:49:33.423Z,78.00
2022-08-17T19:52:43.643Z,78.60
2022-08-17T19:55:36.725Z,78.10
2022-08-17T19:58:27.658Z,78.00
2022-08-17T20:00:55.781Z,78.00
2022-08-17T20:03:46.004Z,77.80
2022-08-17T20:06:14.390Z,77.80
2022-08-17T20:08:57.853Z,77.80
2022-08-17T20:11:33.343Z,77.70
2022-08-17T20:14:07.258Z,77.60
2022-08-17T20:16:34.972Z,77.50
2022-08-17T20:19:08.845Z,77.70
2022-08-17T20:21:52.603Z,77.80
2022-08-17T20:24:23.213Z,77.60
2022-08-17T20:27:00.054Z,77.70
2022-08-17T20:29:39.918Z,77.80
2022-08-17T20:32:26.689Z,78.00
2022-08-17T20:35:17.083Z,78.50
2022-08-17T20:37:56.243Z,78.20
2022-08-17T20:40:33.364Z,79.00
2022-08-17T20:43:36.973Z,79.00
2022-08-17T20:46:29.043Z,79.20
2022-08-17T20:49:14.956Z,79.00
2022-08-17T20:52:03.043Z,79.80
2022-08-17T20:54:55.922Z,80.40
2022-08-17T20:57:32.443Z,80.50
2022-08-17T21:00:15.685Z,80.60
2022-08-17T21:02:46.434Z,81.10
2022-08-17T21:05:59.935Z,81.10
2022-08-17T21:08:32.773Z,81.50
2022-08-17T21:11:21.563Z,81.40
2022-08-17T21:14:38.282Z,81.50
2022-08-17T21:17:29.811Z,81.30
2022-08-17T21:20:35.763Z,81.10
2022-08-17T21:23:38.205Z,81.00
2022-08-17T21:26:32.765Z,80.90
2022-08-17T21:29:31.447Z,81.30
2022-08-17T21:32:00.633Z,80.90
2022-08-17T21:34:33.603Z,80.70
2022-08-17T21:37:19.769Z,81.00
2022-08-17T21:39:56.339Z,81.30
2022-08-17T21:42:34.246Z,80.90
2022-08-17T21:45:10.503Z,80.70
2022-08-17T21:47:43.560Z,80.90
2022-08-17T21:50:24.686Z,81.30
2022-08-17T21:52:56.548Z,81.10
2022-08-17T21:55:30.176Z,81.60
2022-08-17T21:58:13.885Z,81.70
2022-08-17T22:00:46.662Z,81.90
2022-08-17T22:03:29.012Z,83.50
2022-08-17T22:05:56.432Z,82.40
2022-08-17T22:08:26.354Z,83.90
2022-08-17T22:11:03.111Z,83.90
2022-08-17T22:13:31.752Z,84.40
2022-08-17T22:16:28.791Z,84.40
2022-08-17T22:18:59.583Z,84.00
2022-08-17T22:21:27.424Z,83.70
2022-08-17T22:24:05.469Z,83.80
2022-08-17T22:27:10.032Z,83.40
2022-08-17T22:29:57.095Z,83.70
2022-08-17T22:32:35.261Z,83.50
2022-08-17T22:35:34.742Z,83.40
2022-08-17T22:38:20.642Z,83.00
2022-08-17T22:40:51.305Z,83.70
2022-08-17T22:43:26.409Z,84.00
2022-08-17T22:45:58.434Z,84.60
2022-08-17T22:48:29.759Z,84.80
2022-08-17T22:51:17.797Z,85.30
2022-08-17T22:54:19.838Z,85.60
2022-08-17T22:57:18.768Z,85.60
2022-08-17T22:59:50.814Z,85.60
2022-08-17T23:02:28.483Z,85.20
2022-08-17T23:05:13.204Z,84.50
2022-08-17T23:07:42.406Z,85.00
2022-08-17T23:10:12.745Z,84.80
2022-08-17T23:12:40.344Z,84.70
2022-08-17T23:15:16.354Z,85.30
2022-08-17T23:17:49.793Z,85.90
2022-08-17T23:20:17.967Z,85.90
2022-08-17T23:22:52.209Z,86.10
2022-08-17T23:25:30.255Z,86.40
2022-08-17T23:28:01.923Z,86.60
2022-08-17T23:30:31.513Z,86.10
2022-08-17T23:33:06.669Z,86.40
2022-08-17T23:35:39.651Z,86.20
2022-08-17T23:38:12.643Z,85.70
2022-08-17T23:40:41.048Z,85.30
2022-08-17T23:43:17.650Z,85.70
2022-08-17T23:45:58.448Z,86.00
2022-08-17T23:48:35.073Z,86.20
2022-08-17T23:51:06.215Z,86.10
2022-08-17T23:53:36.573Z,86.00
2022-08-17T23:56:09.741Z,86.10
2022-08-17T23:58:43.172Z,86.60
